Observations for TRAVERSE CITY CHERR, MI (TVC)

KTVC 230153Z 00000KT 10SM FEW033 BKN200 23/18 A2978 RMK AO2 SLP082 LAST T02330178   
KTVC 230053Z 04003KT 10SM FEW050 SCT100 BKN200 24/17 A2978 RMK AO2 SLP081 T02390172 
KTVC 222353Z 02004KT 10SM FEW050 SCT250 26/17 A2977 RMK AO2 SLP077 T02560172 10267 20233 58002  
KTVC 222253Z 01006KT 10SM FEW050 26/18 A2977 RMK AO2 SLP078 T02610178   
KTVC 222153Z 02007KT 10SM BKN050 26/17 A2978 RMK AO2 SLP081 T02560172   
KTVC 222053Z 03007KT 10SM SCT049 27/18 A2978 RMK AO2 SLP079 T02670183 58007 
KTVC 221953Z 36004KT 10SM OVC044 26/19 A2979 RMK AO2 SLP082 T02610189   
KTVC 221853Z 36004KT 10SM FEW041 OVC050 24/19 A2979 RMK AO2 SLP083 T02440189
KTVC 221753Z 03006KT 9SM SCT036 OVC050 23/20 A2980 RMK AO2 RAB36E47 SLP087 P0000 60000 T02330200 10261 20211 58005  
KTVC 221653Z 35003KT 10SM SCT027 SCT036 OVC055 25/18 A2980 RMK AO2 SLP089 T02500178 
KTVC 221553Z 06004KT 10SM SCT025 OVC055 26/18 A2981 RMK AO2 SLP092 T02560183
KTVC 221453Z 14004KT 10SM FEW022 OVC055 25/18 A2981 RMK AO2 SLP092 T02500183 56008  
KTVC 221353Z 00000KT 10SM SCT075 BKN120 23/18 A2982 RMK AO2 SLP095 T02330178
KTVC 221253Z 12005KT 10SM OVC070 22/19 A2982 RMK AO2 SLP096 T02220189   
KTVC 221153Z 09005KT 10SM FEW018 BKN075 OVC090 21/19 A2984 RMK AO2 RAB1055E20 SLP100 P0001 60001 70001 T02110189 10239 20206 53006  
KTVC 221053Z 02003KT 10SM BKN055 OVC075 23/17 A2983 RMK AO2 SLP098 T02280172
KTVC 220953Z AUTO 00000KT 10SM OVC060 23/17 A2982 RMK AO2 SLP093 T02280167  
KTVC 220853Z AUTO VRB05KT 10SM OVC070 23/17 A2982 RMK AO2 SLP093 T02280167 58018
KTVC 220753Z AUTO VRB04KT 10SM OVC090 23/17 A2985 RMK AO2 SLP104 T02330167  
KTVC 220653Z AUTO 00000KT 10SM BKN100 BKN110 22/18 A2986 RMK AO2 SLP107 T02220178   
KTVC 220553Z AUTO VRB03KT 10SM CLR 23/17 A2987 RMK AO2 SLP111 T02280172 10261 20222 56013   
KTVC 220453Z AUTO 00000KT 10SM OVC110 23/18 A2987 RMK AO2 SLP112 T02280183 403060167
KTVC 220353Z AUTO 00000KT 10SM BKN110 23/18 A2990 RMK AO2 SLP121 T02280183  
KTVC 220253Z AUTO 00000KT 10SM OVC110 23/19 A2991 RMK AO2 SLP125 T02330189 55006
KTVC 220153Z 00000KT 10SM BKN120 BKN150 BKN200 24/18 A2990 RMK AO2 SLP121 LAST T02390178